sensor_id;sensor_type;location;lat;lon;timestamp;P1;durP1;ratioP1;P2;durP2;ratioP2
23718;SDS011;43322;52.230;5.702;2022-10-16T00:02:05;3.95;;;2.45;;
23718;SDS011;43322;52.230;5.702;2022-10-16T00:04:31;6.35;;;2.72;;
23718;SDS011;43322;52.230;5.702;2022-10-16T00:06:58;5.70;;;2.90;;
23718;SDS011;43322;52.230;5.702;2022-10-16T00:09:25;4.45;;;2.45;;
23718;SDS011;43322;52.230;5.702;2022-10-16T00:11:52;9.63;;;2.80;;
23718;SDS011;43322;52.230;5.702;2022-10-16T00:14:18;3.78;;;2.53;;
23718;SDS011;43322;52.230;5.702;2022-10-16T00:16:46;2.63;;;2.40;;
23718;SDS011;43322;52.230;5.702;2022-10-16T00:19:14;4.40;;;2.35;;
23718;SDS011;43322;52.230;5.702;2022-10-16T00:21:40;6.00;;;3.05;;
23718;SDS011;43322;52.230;5.702;2022-10-16T00:24:08;3.22;;;2.88;;
23718;SDS011;43322;52.230;5.702;2022-10-16T00:26:35;5.20;;;2.60;;
23718;SDS011;43322;52.230;5.702;2022-10-16T00:29:03;6.07;;;2.95;;
23718;SDS011;43322;52.230;5.702;2022-10-16T00:31:30;4.60;;;2.67;;
23718;SDS011;43322;52.230;5.702;2022-10-16T00:33:59;7.07;;;2.63;;
23718;SDS011;43322;52.230;5.702;2022-10-16T00:36:26;7.13;;;2.65;;
23718;SDS011;43322;52.230;5.702;2022-10-16T00:38:53;3.20;;;2.83;;
23718;SDS011;43322;52.230;5.702;2022-10-16T00:41:23;7.28;;;2.58;;
23718;SDS011;43322;52.230;5.702;2022-10-16T00:43:51;2.90;;;2.70;;
23718;SDS011;43322;52.230;5.702;2022-10-16T00:46:20;8.48;;;2.88;;
23718;SDS011;43322;52.230;5.702;2022-10-16T00:48:49;3.58;;;2.67;;
23718;SDS011;43322;52.230;5.702;2022-10-16T00:51:22;4.53;;;2.83;;
23718;SDS011;43322;52.230;5.702;2022-10-16T00:53:52;3.53;;;2.80;;
23718;SDS011;43322;52.230;5.702;2022-10-16T00:56:18;2.70;;;2.50;;
23718;SDS011;43322;52.230;5.702;2022-10-16T00:58:45;5.50;;;2.90;;
23718;SDS011;43322;52.230;5.702;2022-10-16T01:01:12;2.95;;;2.67;;
23718;SDS011;43322;52.230;5.702;2022-10-16T01:03:39;3.42;;;3.00;;
23718;SDS011;43322;52.230;5.702;2022-10-16T01:06:15;4.55;;;3.03;;
23718;SDS011;43322;52.230;5.702;2022-10-16T01:09:03;4.32;;;2.47;;
23718;SDS011;43322;52.230;5.702;2022-10-16T01:11:44;5.85;;;3.00;;
23718;SDS011;43322;52.230;5.702;2022-10-16T01:14:22;7.40;;;2.63;;
23718;SDS011;43322;52.230;5.702;2022-10-16T01:16:55;5.65;;;2.47;;
23718;SDS011;43322;52.230;5.702;2022-10-16T01:19:36;2.60;;;2.40;;
23718;SDS011;43322;52.230;5.702;2022-10-16T01:22:15;3.92;;;2.45;;
23718;SDS011;43322;52.230;5.702;2022-10-16T01:24:45;2.75;;;2.50;;
23718;SDS011;43322;52.230;5.702;2022-10-16T01:27:16;3.78;;;2.95;;
23718;SDS011;43322;52.230;5.702;2022-10-16T01:29:49;3.70;;;2.30;;
23718;SDS011;43322;52.230;5.702;2022-10-16T01:32:27;4.78;;;2.50;;
23718;SDS011;43322;52.230;5.702;2022-10-16T01:34:59;3.17;;;2.72;;
23718;SDS011;43322;52.230;5.702;2022-10-16T01:37:31;5.80;;;2.60;;
23718;SDS011;43322;52.230;5.702;2022-10-16T01:40:02;3.92;;;2.67;;
23718;SDS011;43322;52.230;5.702;2022-10-16T01:42:35;3.28;;;2.97;;
23718;SDS011;43322;52.230;5.702;2022-10-16T01:45:05;3.35;;;2.80;;
23718;SDS011;43322;52.230;5.702;2022-10-16T01:47:36;4.35;;;3.03;;
23718;SDS011;43322;52.230;5.702;2022-10-16T01:50:05;6.38;;;3.20;;
23718;SDS011;43322;52.230;5.702;2022-10-16T01:52:35;6.28;;;2.83;;
23718;SDS011;43322;52.230;5.702;2022-10-16T01:55:06;3.35;;;2.90;;
23718;SDS011;43322;52.230;5.702;2022-10-16T01:57:37;3.33;;;2.83;;
23718;SDS011;43322;52.230;5.702;2022-10-16T02:00:08;3.90;;;3.00;;
23718;SDS011;43322;52.230;5.702;2022-10-16T02:02:38;3.10;;;2.90;;
23718;SDS011;43322;52.230;5.702;2022-10-16T02:05:08;3.30;;;3.03;;
23718;SDS011;43322;52.230;5.702;2022-10-16T02:07:41;3.17;;;2.97;;
23718;SDS011;43322;52.230;5.702;2022-10-16T02:10:08;7.30;;;3.55;;
23718;SDS011;43322;52.230;5.702;2022-10-16T02:12:38;4.90;;;3.30;;
23718;SDS011;43322;52.230;5.702;2022-10-16T02:15:07;3.75;;;3.08;;
23718;SDS011;43322;52.230;5.702;2022-10-16T02:17:34;5.35;;;3.28;;
23718;SDS011;43322;52.230;5.702;2022-10-16T02:20:01;3.38;;;3.08;;
23718;SDS011;43322;52.230;5.702;2022-10-16T02:22:30;4.82;;;3.60;;
23718;SDS011;43322;52.230;5.702;2022-10-16T02:25:01;4.22;;;3.15;;
23718;SDS011;43322;52.230;5.702;2022-10-16T02:27:33;5.07;;;3.47;;
23718;SDS011;43322;52.230;5.702;2022-10-16T02:30:07;7.15;;;3.60;;
23718;SDS011;43322;52.230;5.702;2022-10-16T02:32:40;4.00;;;3.60;;
23718;SDS011;43322;52.230;5.702;2022-10-16T02:35:10;6.80;;;3.40;;
23718;SDS011;43322;52.230;5.702;2022-10-16T02:37:38;5.97;;;3.47;;
23718;SDS011;43322;52.230;5.702;2022-10-16T02:40:07;3.95;;;3.65;;
23718;SDS011;43322;52.230;5.702;2022-10-16T02:42:35;8.23;;;3.65;;
23718;SDS011;43322;52.230;5.702;2022-10-16T02:45:04;3.40;;;3.20;;
23718;SDS011;43322;52.230;5.702;2022-10-16T02:47:34;7.07;;;3.60;;
23718;SDS011;43322;52.230;5.702;2022-10-16T02:50:01;6.00;;;3.40;;
23718;SDS011;43322;52.230;5.702;2022-10-16T02:52:28;5.10;;;3.58;;
23718;SDS011;43322;52.230;5.702;2022-10-16T02:54:55;3.78;;;3.33;;
23718;SDS011;43322;52.230;5.702;2022-10-16T02:57:22;7.03;;;3.22;;
23718;SDS011;43322;52.230;5.702;2022-10-16T02:59:49;3.80;;;3.40;;
23718;SDS011;43322;52.230;5.702;2022-10-16T03:02:17;5.25;;;3.40;;
23718;SDS011;43322;52.230;5.702;2022-10-16T03:04:44;6.80;;;3.53;;
23718;SDS011;43322;52.230;5.702;2022-10-16T03:07:10;4.20;;;3.90;;
23718;SDS011;43322;52.230;5.702;2022-10-16T03:09:37;3.95;;;3.58;;
23718;SDS011;43322;52.230;5.702;2022-10-16T03:12:04;4.40;;;3.53;;
23718;SDS011;43322;52.230;5.702;2022-10-16T03:14:31;5.30;;;3.30;;
23718;SDS011;43322;52.230;5.702;2022-10-16T03:16:58;3.70;;;3.40;;
23718;SDS011;43322;52.230;5.702;2022-10-16T03:19:26;4.30;;;3.35;;
23718;SDS011;43322;52.230;5.702;2022-10-16T03:21:53;3.67;;;3.38;;
23718;SDS011;43322;52.230;5.702;2022-10-16T03:24:20;4.70;;;3.35;;
23718;SDS011;43322;52.230;5.702;2022-10-16T03:26:46;8.23;;;3.88;;
23718;SDS011;43322;52.230;5.702;2022-10-16T03:29:13;3.95;;;3.60;;
23718;SDS011;43322;52.230;5.702;2022-10-16T03:31:40;3.97;;;3.67;;
23718;SDS011;43322;52.230;5.702;2022-10-16T03:34:07;3.67;;;3.38;;
23718;SDS011;43322;52.230;5.702;2022-10-16T03:36:35;5.22;;;3.85;;
23718;SDS011;43322;52.230;5.702;2022-10-16T03:39:02;5.90;;;3.70;;
23718;SDS011;43322;52.230;5.702;2022-10-16T03:41:29;4.13;;;3.80;;
23718;SDS011;43322;52.230;5.702;2022-10-16T03:43:55;3.38;;;3.17;;
23718;SDS011;43322;52.230;5.702;2022-10-16T03:46:22;3.72;;;3.50;;
23718;SDS011;43322;52.230;5.702;2022-10-16T03:48:49;5.97;;;3.50;;
23718;SDS011;43322;52.230;5.702;2022-10-16T03:51:15;4.07;;;3.60;;
23718;SDS011;43322;52.230;5.702;2022-10-16T03:53:44;3.55;;;3.35;;
23718;SDS011;43322;52.230;5.702;2022-10-16T03:56:10;3.83;;;3.33;;
23718;SDS011;43322;52.230;5.702;2022-10-16T03:58:37;3.83;;;3.65;;
23718;SDS011;43322;52.230;5.702;2022-10-16T04:01:04;5.72;;;3.55;;
23718;SDS011;43322;52.230;5.702;2022-10-16T04:03:31;5.57;;;3.53;;
23718;SDS011;43322;52.230;5.702;2022-10-16T04:05:57;4.05;;;3.22;;
23718;SDS011;43322;52.230;5.702;2022-10-16T04:08:24;3.72;;;3.42;;
23718;SDS011;43322;52.230;5.702;2022-10-16T04:10:53;4.32;;;3.45;;
23718;SDS011;43322;52.230;5.702;2022-10-16T04:13:19;3.33;;;3.13;;
23718;SDS011;43322;52.230;5.702;2022-10-16T04:15:46;4.70;;;3.30;;
23718;SDS011;43322;52.230;5.702;2022-10-16T04:18:13;3.30;;;3.00;;
23718;SDS011;43322;52.230;5.702;2022-10-16T04:20:40;4.47;;;3.00;;
23718;SDS011;43322;52.230;5.702;2022-10-16T04:23:07;5.57;;;3.90;;
23718;SDS011;43322;52.230;5.702;2022-10-16T04:25:34;5.05;;;3.58;;
23718;SDS011;43322;52.230;5.702;2022-10-16T04:28:02;3.65;;;3.28;;
23718;SDS011;43322;52.230;5.702;2022-10-16T04:30:28;3.28;;;2.97;;
23718;SDS011;43322;52.230;5.702;2022-10-16T04:32:55;3.95;;;3.20;;
23718;SDS011;43322;52.230;5.702;2022-10-16T04:35:22;3.58;;;3.20;;
23718;SDS011;43322;52.230;5.702;2022-10-16T04:37:49;3.75;;;3.35;;
23718;SDS011;43322;52.230;5.702;2022-10-16T04:40:15;3.30;;;3.05;;
23718;SDS011;43322;52.230;5.702;2022-10-16T04:42:43;6.55;;;3.45;;
23718;SDS011;43322;52.230;5.702;2022-10-16T04:45:11;4.50;;;3.28;;
23718;SDS011;43322;52.230;5.702;2022-10-16T04:47:39;6.80;;;3.38;;
23718;SDS011;43322;52.230;5.702;2022-10-16T04:50:06;3.97;;;3.22;;
23718;SDS011;43322;52.230;5.702;2022-10-16T04:52:34;3.72;;;3.50;;
23718;SDS011;43322;52.230;5.702;2022-10-16T04:55:00;3.38;;;3.10;;
23718;SDS011;43322;52.230;5.702;2022-10-16T04:57:27;4.00;;;3.00;;
23718;SDS011;43322;52.230;5.702;2022-10-16T04:59:55;3.58;;;2.63;;
23718;SDS011;43322;52.230;5.702;2022-10-16T05:02:23;3.30;;;3.10;;
23718;SDS011;43322;52.230;5.702;2022-10-16T05:04:50;3.17;;;2.97;;
23718;SDS011;43322;52.230;5.702;2022-10-16T05:07:17;3.05;;;2.83;;
23718;SDS011;43322;52.230;5.702;2022-10-16T05:09:44;3.53;;;3.10;;
23718;SDS011;43322;52.230;5.702;2022-10-16T05:12:10;3.13;;;2.83;;
23718;SDS011;43322;52.230;5.702;2022-10-16T05:14:37;9.00;;;2.90;;
23718;SDS011;43322;52.230;5.702;2022-10-16T05:17:04;4.82;;;2.97;;
23718;SDS011;43322;52.230;5.702;2022-10-16T05:19:32;3.05;;;2.85;;
23718;SDS011;43322;52.230;5.702;2022-10-16T05:21:59;7.25;;;4.22;;
23718;SDS011;43322;52.230;5.702;2022-10-16T05:24:26;6.78;;;3.05;;
23718;SDS011;43322;52.230;5.702;2022-10-16T05:26:53;3.17;;;2.90;;
23718;SDS011;43322;52.230;5.702;2022-10-16T05:29:20;7.30;;;3.13;;
23718;SDS011;43322;52.230;5.702;2022-10-16T05:31:49;2.70;;;2.50;;
23718;SDS011;43322;52.230;5.702;2022-10-16T05:34:17;7.05;;;2.83;;
23718;SDS011;43322;52.230;5.702;2022-10-16T05:36:45;4.07;;;3.13;;
23718;SDS011;43322;52.230;5.702;2022-10-16T05:39:13;3.05;;;2.85;;
23718;SDS011;43322;52.230;5.702;2022-10-16T05:41:41;3.15;;;2.85;;
23718;SDS011;43322;52.230;5.702;2022-10-16T05:44:08;5.88;;;3.20;;
23718;SDS011;43322;52.230;5.702;2022-10-16T05:46:35;5.95;;;3.00;;
23718;SDS011;43322;52.230;5.702;2022-10-16T05:49:02;3.42;;;3.20;;
23718;SDS011;43322;52.230;5.702;2022-10-16T05:51:29;5.70;;;3.17;;
23718;SDS011;43322;52.230;5.702;2022-10-16T05:53:57;3.50;;;3.17;;
23718;SDS011;43322;52.230;5.702;2022-10-16T05:56:24;4.15;;;3.75;;
23718;SDS011;43322;52.230;5.702;2022-10-16T05:58:50;4.22;;;3.80;;
23718;SDS011;43322;52.230;5.702;2022-10-16T06:01:18;4.50;;;4.10;;
23718;SDS011;43322;52.230;5.702;2022-10-16T06:03:46;4.25;;;3.88;;
23718;SDS011;43322;52.230;5.702;2022-10-16T06:06:13;4.50;;;4.03;;
23718;SDS011;43322;52.230;5.702;2022-10-16T06:08:42;4.40;;;4.10;;
23718;SDS011;43322;52.230;5.702;2022-10-16T06:11:12;5.88;;;4.70;;
23718;SDS011;43322;52.230;5.702;2022-10-16T06:13:40;4.90;;;4.50;;
23718;SDS011;43322;52.230;5.702;2022-10-16T06:16:08;5.13;;;4.40;;
23718;SDS011;43322;52.230;5.702;2022-10-16T06:18:36;7.68;;;4.97;;
23718;SDS011;43322;52.230;5.702;2022-10-16T06:21:07;5.50;;;5.00;;
23718;SDS011;43322;52.230;5.702;2022-10-16T06:23:34;10.60;;;4.80;;
23718;SDS011;43322;52.230;5.702;2022-10-16T06:26:05;8.30;;;4.95;;
23718;SDS011;43322;52.230;5.702;2022-10-16T06:28:34;5.53;;;4.88;;
23718;SDS011;43322;52.230;5.702;2022-10-16T06:31:01;5.55;;;4.78;;
23718;SDS011;43322;52.230;5.702;2022-10-16T06:33:29;5.88;;;5.20;;
23718;SDS011;43322;52.230;5.702;2022-10-16T06:35:59;5.60;;;5.10;;
23718;SDS011;43322;52.230;5.702;2022-10-16T06:38:27;5.68;;;5.07;;
23718;SDS011;43322;52.230;5.702;2022-10-16T06:40:54;8.68;;;5.15;;
23718;SDS011;43322;52.230;5.702;2022-10-16T06:43:20;13.00;;;5.22;;
23718;SDS011;43322;52.230;5.702;2022-10-16T06:45:51;8.48;;;5.63;;
23718;SDS011;43322;52.230;5.702;2022-10-16T06:48:18;7.57;;;5.20;;
23718;SDS011;43322;52.230;5.702;2022-10-16T06:50:54;5.45;;;4.95;;
23718;SDS011;43322;52.230;5.702;2022-10-16T06:53:22;5.57;;;5.07;;
23718;SDS011;43322;52.230;5.702;2022-10-16T06:55:49;7.65;;;4.90;;
23718;SDS011;43322;52.230;5.702;2022-10-16T06:58:15;8.65;;;4.60;;
23718;SDS011;43322;52.230;5.702;2022-10-16T07:00:42;7.22;;;4.95;;
23718;SDS011;43322;52.230;5.702;2022-10-16T07:03:10;6.35;;;4.57;;
23718;SDS011;43322;52.230;5.702;2022-10-16T07:05:37;5.72;;;4.35;;
23718;SDS011;43322;52.230;5.702;2022-10-16T07:08:04;4.50;;;4.13;;
23718;SDS011;43322;52.230;5.702;2022-10-16T07:10:31;7.35;;;5.20;;
23718;SDS011;43322;52.230;5.702;2022-10-16T07:12:58;6.55;;;4.28;;
23718;SDS011;43322;52.230;5.702;2022-10-16T07:15:25;4.13;;;3.83;;
23718;SDS011;43322;52.230;5.702;2022-10-16T07:17:52;3.30;;;3.10;;
23718;SDS011;43322;52.230;5.702;2022-10-16T07:20:21;8.00;;;3.42;;
23718;SDS011;43322;52.230;5.702;2022-10-16T07:22:48;4.38;;;3.75;;
23718;SDS011;43322;52.230;5.702;2022-10-16T07:25:15;3.70;;;3.40;;
23718;SDS011;43322;52.230;5.702;2022-10-16T07:27:41;7.18;;;3.72;;
23718;SDS011;43322;52.230;5.702;2022-10-16T07:30:08;4.05;;;3.33;;
23718;SDS011;43322;52.230;5.702;2022-10-16T07:32:35;4.43;;;3.95;;
23718;SDS011;43322;52.230;5.702;2022-10-16T07:35:02;5.43;;;3.70;;
23718;SDS011;43322;52.230;5.702;2022-10-16T07:37:31;5.07;;;3.60;;
23718;SDS011;43322;52.230;5.702;2022-10-16T07:39:58;5.93;;;3.38;;
23718;SDS011;43322;52.230;5.702;2022-10-16T07:42:25;3.28;;;2.97;;
23718;SDS011;43322;52.230;5.702;2022-10-16T07:44:53;7.22;;;3.50;;
23718;SDS011;43322;52.230;5.702;2022-10-16T07:47:20;3.67;;;2.88;;
23718;SDS011;43322;52.230;5.702;2022-10-16T07:49:46;3.28;;;3.08;;
23718;SDS011;43322;52.230;5.702;2022-10-16T07:52:13;3.60;;;2.75;;
23718;SDS011;43322;52.230;5.702;2022-10-16T07:54:41;4.93;;;2.70;;
23718;SDS011;43322;52.230;5.702;2022-10-16T07:57:08;5.97;;;2.72;;
23718;SDS011;43322;52.230;5.702;2022-10-16T07:59:35;5.88;;;3.13;;
23718;SDS011;43322;52.230;5.702;2022-10-16T08:02:01;2.88;;;2.58;;
23718;SDS011;43322;52.230;5.702;2022-10-16T08:04:28;4.97;;;2.85;;
23718;SDS011;43322;52.230;5.702;2022-10-16T08:06:55;4.93;;;2.40;;
23718;SDS011;43322;52.230;5.702;2022-10-16T08:09:22;3.45;;;2.10;;
23718;SDS011;43322;52.230;5.702;2022-10-16T08:11:50;3.63;;;2.35;;
23718;SDS011;43322;52.230;5.702;2022-10-16T08:14:17;2.20;;;2.00;;
23718;SDS011;43322;52.230;5.702;2022-10-16T08:16:44;6.50;;;2.50;;
23718;SDS011;43322;52.230;5.702;2022-10-16T08:19:11;7.05;;;2.70;;
23718;SDS011;43322;52.230;5.702;2022-10-16T08:21:37;2.78;;;2.47;;
23718;SDS011;43322;52.230;5.702;2022-10-16T08:24:04;4.43;;;2.83;;
23718;SDS011;43322;52.230;5.702;2022-10-16T08:26:31;2.92;;;2.70;;
23718;SDS011;43322;52.230;5.702;2022-10-16T08:28:59;5.57;;;3.80;;
23718;SDS011;43322;52.230;5.702;2022-10-16T08:31:26;6.63;;;3.05;;
23718;SDS011;43322;52.230;5.702;2022-10-16T08:33:53;4.85;;;3.20;;
23718;SDS011;43322;52.230;5.702;2022-10-16T08:36:19;5.28;;;3.50;;
23718;SDS011;43322;52.230;5.702;2022-10-16T08:38:47;3.70;;;3.28;;
23718;SDS011;43322;52.230;5.702;2022-10-16T08:41:18;4.50;;;3.33;;
23718;SDS011;43322;52.230;5.702;2022-10-16T08:44:13;5.72;;;3.50;;
23718;SDS011;43322;52.230;5.702;2022-10-16T08:46:55;9.77;;;4.03;;
23718;SDS011;43322;52.230;5.702;2022-10-16T08:49:29;4.45;;;3.90;;
23718;SDS011;43322;52.230;5.702;2022-10-16T08:51:56;5.00;;;3.17;;
23718;SDS011;43322;52.230;5.702;2022-10-16T08:54:26;5.68;;;3.33;;
23718;SDS011;43322;52.230;5.702;2022-10-16T08:56:56;5.10;;;3.33;;
23718;SDS011;43322;52.230;5.702;2022-10-16T08:59:27;9.70;;;3.20;;
23718;SDS011;43322;52.230;5.702;2022-10-16T09:01:54;5.40;;;3.10;;
23718;SDS011;43322;52.230;5.702;2022-10-16T09:04:43;5.75;;;2.83;;
23718;SDS011;43322;52.230;5.702;2022-10-16T09:07:20;3.20;;;3.00;;
23718;SDS011;43322;52.230;5.702;2022-10-16T09:09:58;6.10;;;2.92;;
23718;SDS011;43322;52.230;5.702;2022-10-16T09:12:40;4.53;;;2.80;;
23718;SDS011;43322;52.230;5.702;2022-10-16T09:15:16;7.32;;;2.88;;
23718;SDS011;43322;52.230;5.702;2022-10-16T09:17:52;3.83;;;3.22;;
23718;SDS011;43322;52.230;5.702;2022-10-16T09:20:27;6.93;;;2.75;;
23718;SDS011;43322;52.230;5.702;2022-10-16T09:23:07;5.75;;;2.80;;
23718;SDS011;43322;52.230;5.702;2022-10-16T09:25:39;7.80;;;3.13;;
23718;SDS011;43322;52.230;5.702;2022-10-16T09:28:09;5.88;;;2.80;;
23718;SDS011;43322;52.230;5.702;2022-10-16T09:30:38;7.82;;;2.90;;
23718;SDS011;43322;52.230;5.702;2022-10-16T09:33:05;5.80;;;2.78;;
23718;SDS011;43322;52.230;5.702;2022-10-16T09:35:35;5.25;;;2.53;;
23718;SDS011;43322;52.230;5.702;2022-10-16T09:38:04;6.53;;;2.80;;
23718;SDS011;43322;52.230;5.702;2022-10-16T09:40:32;7.85;;;3.17;;
23718;SDS011;43322;52.230;5.702;2022-10-16T09:43:02;6.10;;;2.15;;
23718;SDS011;43322;52.230;5.702;2022-10-16T09:45:42;9.75;;;2.47;;
23718;SDS011;43322;52.230;5.702;2022-10-16T09:48:10;5.55;;;2.20;;
23718;SDS011;43322;52.230;5.702;2022-10-16T09:50:37;9.73;;;2.60;;
23718;SDS011;43322;52.230;5.702;2022-10-16T09:53:08;8.30;;;2.22;;
23718;SDS011;43322;52.230;5.702;2022-10-16T09:55:47;10.38;;;2.50;;
23718;SDS011;43322;52.230;5.702;2022-10-16T09:58:15;13.68;;;2.47;;
23718;SDS011;43322;52.230;5.702;2022-10-16T10:00:48;11.20;;;2.53;;
23718;SDS011;43322;52.230;5.702;2022-10-16T10:03:21;11.20;;;2.25;;
23718;SDS011;43322;52.230;5.702;2022-10-16T10:06:06;9.25;;;2.10;;
23718;SDS011;43322;52.230;5.702;2022-10-16T10:08:52;9.00;;;2.25;;
23718;SDS011;43322;52.230;5.702;2022-10-16T10:11:39;10.50;;;2.20;;
23718;SDS011;43322;52.230;5.702;2022-10-16T10:16:44;6.03;;;1.73;;
23718;SDS011;43322;52.230;5.702;2022-10-16T10:19:13;5.35;;;1.83;;
23718;SDS011;43322;52.230;5.702;2022-10-16T10:21:41;6.97;;;2.15;;
23718;SDS011;43322;52.230;5.702;2022-10-16T10:24:09;7.70;;;2.05;;
23718;SDS011;43322;52.230;5.702;2022-10-16T10:26:37;10.85;;;2.88;;
23718;SDS011;43322;52.230;5.702;2022-10-16T10:29:08;5.90;;;1.95;;
23718;SDS011;43322;52.230;5.702;2022-10-16T10:31:48;10.13;;;2.40;;
23718;SDS011;43322;52.230;5.702;2022-10-16T10:34:25;12.13;;;2.30;;
23718;SDS011;43322;52.230;5.702;2022-10-16T10:37:06;4.80;;;1.80;;
23718;SDS011;43322;52.230;5.702;2022-10-16T10:39:40;6.60;;;2.10;;
23718;SDS011;43322;52.230;5.702;2022-10-16T10:42:14;8.90;;;2.15;;
23718;SDS011;43322;52.230;5.702;2022-10-16T10:44:51;9.57;;;2.58;;
23718;SDS011;43322;52.230;5.702;2022-10-16T10:47:30;4.88;;;1.83;;
23718;SDS011;43322;52.230;5.702;2022-10-16T10:50:08;11.27;;;2.67;;
23718;SDS011;43322;52.230;5.702;2022-10-16T10:52:44;10.15;;;2.30;;
23718;SDS011;43322;52.230;5.702;2022-10-16T10:55:20;11.52;;;2.30;;
23718;SDS011;43322;52.230;5.702;2022-10-16T10:57:58;11.40;;;2.22;;
23718;SDS011;43322;52.230;5.702;2022-10-16T11:00:42;6.88;;;2.05;;
23718;SDS011;43322;52.230;5.702;2022-10-16T11:03:21;6.07;;;1.90;;
23718;SDS011;43322;52.230;5.702;2022-10-16T11:06:00;7.88;;;2.00;;
23718;SDS011;43322;52.230;5.702;2022-10-16T11:08:33;9.95;;;1.70;;
23718;SDS011;43322;52.230;5.702;2022-10-16T11:11:04;7.40;;;2.17;;
23718;SDS011;43322;52.230;5.702;2022-10-16T11:13:36;9.10;;;2.17;;
23718;SDS011;43322;52.230;5.702;2022-10-16T11:16:11;7.85;;;2.03;;
23718;SDS011;43322;52.230;5.702;2022-10-16T11:18:46;6.43;;;1.90;;
23718;SDS011;43322;52.230;5.702;2022-10-16T11:21:18;7.47;;;2.00;;
23718;SDS011;43322;52.230;5.702;2022-10-16T11:23:48;8.35;;;1.92;;
23718;SDS011;43322;52.230;5.702;2022-10-16T11:26:21;11.70;;;2.60;;
23718;SDS011;43322;52.230;5.702;2022-10-16T11:28:51;6.03;;;1.92;;
23718;SDS011;43322;52.230;5.702;2022-10-16T11:31:22;10.90;;;2.83;;
23718;SDS011;43322;52.230;5.702;2022-10-16T11:33:57;4.65;;;1.83;;
23718;SDS011;43322;52.230;5.702;2022-10-16T11:36:31;6.32;;;2.08;;
23718;SDS011;43322;52.230;5.702;2022-10-16T11:39:03;10.23;;;1.98;;
23718;SDS011;43322;52.230;5.702;2022-10-16T11:41:39;7.05;;;2.10;;
23718;SDS011;43322;52.230;5.702;2022-10-16T11:44:18;5.68;;;1.85;;
23718;SDS011;43322;52.230;5.702;2022-10-16T11:46:57;5.13;;;2.03;;
23718;SDS011;43322;52.230;5.702;2022-10-16T11:49:34;7.68;;;2.15;;
23718;SDS011;43322;52.230;5.702;2022-10-16T11:52:05;8.35;;;2.20;;
23718;SDS011;43322;52.230;5.702;2022-10-16T11:54:39;7.03;;;1.63;;
23718;SDS011;43322;52.230;5.702;2022-10-16T11:57:12;4.78;;;1.50;;
23718;SDS011;43322;52.230;5.702;2022-10-16T11:59:44;3.72;;;1.50;;
23718;SDS011;43322;52.230;5.702;2022-10-16T12:02:35;4.18;;;1.70;;
23718;SDS011;43322;52.230;5.702;2022-10-16T12:05:17;7.40;;;1.63;;
23718;SDS011;43322;52.230;5.702;2022-10-16T12:07:51;4.18;;;1.80;;
23718;SDS011;43322;52.230;5.702;2022-10-16T12:10:26;6.55;;;1.38;;
23718;SDS011;43322;52.230;5.702;2022-10-16T12:12:56;5.55;;;1.75;;
23718;SDS011;43322;52.230;5.702;2022-10-16T12:15:24;6.78;;;1.92;;
23718;SDS011;43322;52.230;5.702;2022-10-16T12:17:52;4.30;;;1.50;;
23718;SDS011;43322;52.230;5.702;2022-10-16T12:20:31;4.20;;;1.40;;
23718;SDS011;43322;52.230;5.702;2022-10-16T12:23:02;4.75;;;1.60;;
23718;SDS011;43322;52.230;5.702;2022-10-16T12:25:31;3.30;;;1.70;;
23718;SDS011;43322;52.230;5.702;2022-10-16T12:28:00;3.28;;;1.40;;
23718;SDS011;43322;52.230;5.702;2022-10-16T12:30:30;5.05;;;2.08;;
23718;SDS011;43322;52.230;5.702;2022-10-16T12:33:00;4.68;;;1.75;;
23718;SDS011;43322;52.230;5.702;2022-10-16T12:35:31;5.93;;;1.65;;
23718;SDS011;43322;52.230;5.702;2022-10-16T12:38:06;8.20;;;2.10;;
23718;SDS011;43322;52.230;5.702;2022-10-16T12:40:39;6.13;;;1.88;;
23718;SDS011;43322;52.230;5.702;2022-10-16T12:43:13;5.55;;;1.38;;
23718;SDS011;43322;52.230;5.702;2022-10-16T12:46:01;7.63;;;2.00;;
23718;SDS011;43322;52.230;5.702;2022-10-16T12:48:30;5.88;;;1.50;;
23718;SDS011;43322;52.230;5.702;2022-10-16T12:51:08;4.72;;;1.90;;
23718;SDS011;43322;52.230;5.702;2022-10-16T12:53:36;4.53;;;1.38;;
23718;SDS011;43322;52.230;5.702;2022-10-16T12:56:04;5.38;;;1.90;;
23718;SDS011;43322;52.230;5.702;2022-10-16T12:58:46;3.30;;;1.73;;
23718;SDS011;43322;52.230;5.702;2022-10-16T13:04:22;5.07;;;2.05;;
23718;SDS011;43322;52.230;5.702;2022-10-16T13:07:05;4.80;;;1.42;;
23718;SDS011;43322;52.230;5.702;2022-10-16T13:09:48;4.30;;;1.65;;
23718;SDS011;43322;52.230;5.702;2022-10-16T13:12:33;3.80;;;1.55;;
23718;SDS011;43322;52.230;5.702;2022-10-16T13:15:16;6.95;;;2.22;;
23718;SDS011;43322;52.230;5.702;2022-10-16T13:17:53;4.15;;;1.73;;
23718;SDS011;43322;52.230;5.702;2022-10-16T13:20:27;8.27;;;2.00;;
23718;SDS011;43322;52.230;5.702;2022-10-16T13:23:03;4.80;;;1.88;;
23718;SDS011;43322;52.230;5.702;2022-10-16T13:25:42;3.97;;;1.77;;
23718;SDS011;43322;52.230;5.702;2022-10-16T13:28:21;5.10;;;1.65;;
23718;SDS011;43322;52.230;5.702;2022-10-16T13:30:53;4.65;;;1.75;;
23718;SDS011;43322;52.230;5.702;2022-10-16T13:33:24;5.13;;;1.50;;
23718;SDS011;43322;52.230;5.702;2022-10-16T13:35:57;4.95;;;1.63;;
23718;SDS011;43322;52.230;5.702;2022-10-16T13:38:26;12.93;;;2.25;;
23718;SDS011;43322;52.230;5.702;2022-10-16T13:40:54;7.40;;;2.03;;
23718;SDS011;43322;52.230;5.702;2022-10-16T13:43:26;6.28;;;1.67;;
23718;SDS011;43322;52.230;5.702;2022-10-16T13:45:58;6.22;;;2.22;;
23718;SDS011;43322;52.230;5.702;2022-10-16T13:48:27;11.07;;;2.95;;
23718;SDS011;43322;52.230;5.702;2022-10-16T13:50:58;6.50;;;1.92;;
23718;SDS011;43322;52.230;5.702;2022-10-16T13:53:31;7.22;;;1.75;;
23718;SDS011;43322;52.230;5.702;2022-10-16T13:55:58;2.75;;;1.33;;
23718;SDS011;43322;52.230;5.702;2022-10-16T13:58:26;3.47;;;1.52;;
23718;SDS011;43322;52.230;5.702;2022-10-16T14:00:53;5.05;;;1.75;;
23718;SDS011;43322;52.230;5.702;2022-10-16T14:03:21;6.55;;;2.08;;
23718;SDS011;43322;52.230;5.702;2022-10-16T14:05:49;5.88;;;2.08;;
23718;SDS011;43322;52.230;5.702;2022-10-16T14:08:18;4.93;;;1.95;;
23718;SDS011;43322;52.230;5.702;2022-10-16T14:10:48;8.88;;;2.05;;
23718;SDS011;43322;52.230;5.702;2022-10-16T14:13:17;6.60;;;1.95;;
23718;SDS011;43322;52.230;5.702;2022-10-16T14:15:46;5.68;;;1.70;;
23718;SDS011;43322;52.230;5.702;2022-10-16T14:18:17;7.22;;;1.65;;
23718;SDS011;43322;52.230;5.702;2022-10-16T14:20:45;4.97;;;1.67;;
23718;SDS011;43322;52.230;5.702;2022-10-16T14:23:21;7.93;;;2.20;;
23718;SDS011;43322;52.230;5.702;2022-10-16T14:25:52;6.72;;;1.65;;
23718;SDS011;43322;52.230;5.702;2022-10-16T14:28:20;6.70;;;1.83;;
23718;SDS011;43322;52.230;5.702;2022-10-16T14:30:49;7.65;;;2.05;;
23718;SDS011;43322;52.230;5.702;2022-10-16T14:33:21;10.20;;;2.60;;
23718;SDS011;43322;52.230;5.702;2022-10-16T14:36:00;7.72;;;2.50;;
23718;SDS011;43322;52.230;5.702;2022-10-16T14:38:30;6.57;;;2.00;;
23718;SDS011;43322;52.230;5.702;2022-10-16T14:40:59;4.72;;;1.75;;
23718;SDS011;43322;52.230;5.702;2022-10-16T14:43:29;11.20;;;2.42;;
23718;SDS011;43322;52.230;5.702;2022-10-16T14:45:59;5.30;;;1.90;;
23718;SDS011;43322;52.230;5.702;2022-10-16T14:48:28;7.20;;;2.05;;
23718;SDS011;43322;52.230;5.702;2022-10-16T14:50:55;6.10;;;1.77;;
23718;SDS011;43322;52.230;5.702;2022-10-16T14:53:23;6.50;;;2.30;;
23718;SDS011;43322;52.230;5.702;2022-10-16T14:55:50;7.15;;;2.88;;
23718;SDS011;43322;52.230;5.702;2022-10-16T14:58:19;7.00;;;2.70;;
23718;SDS011;43322;52.230;5.702;2022-10-16T15:00:48;11.52;;;3.45;;
23718;SDS011;43322;52.230;5.702;2022-10-16T15:03:15;8.10;;;2.85;;
23718;SDS011;43322;52.230;5.702;2022-10-16T15:05:42;7.75;;;1.98;;
23718;SDS011;43322;52.230;5.702;2022-10-16T15:08:09;8.77;;;2.58;;
23718;SDS011;43322;52.230;5.702;2022-10-16T15:10:38;6.10;;;1.75;;
23718;SDS011;43322;52.230;5.702;2022-10-16T15:13:11;7.40;;;2.17;;